sensor_id;sensor_type;location;lat;lon;timestamp;P1;durP1;ratioP1;P2;durP2;ratioP2
56770;SDS011;42641;59.794;17.616;2022-08-19T00:01:55;35.72;;;18.08;;
56770;SDS011;42641;59.794;17.616;2022-08-19T00:04:24;39.45;;;18.35;;
56770;SDS011;42641;59.794;17.616;2022-08-19T00:06:56;40.80;;;18.85;;
56770;SDS011;42641;59.794;17.616;2022-08-19T00:09:23;60.75;;;22.17;;
56770;SDS011;42641;59.794;17.616;2022-08-19T00:11:50;53.17;;;20.50;;
56770;SDS011;42641;59.794;17.616;2022-08-19T00:14:18;33.85;;;17.38;;
56770;SDS011;42641;59.794;17.616;2022-08-19T00:16:46;24.90;;;16.48;;
56770;SDS011;42641;59.794;17.616;2022-08-19T00:19:14;51.67;;;18.73;;
56770;SDS011;42641;59.794;17.616;2022-08-19T00:21:41;39.53;;;20.27;;
56770;SDS011;42641;59.794;17.616;2022-08-19T00:24:09;40.40;;;18.48;;
56770;SDS011;42641;59.794;17.616;2022-08-19T00:26:38;28.45;;;17.05;;
56770;SDS011;42641;59.794;17.616;2022-08-19T00:29:05;33.42;;;17.70;;
56770;SDS011;42641;59.794;17.616;2022-08-19T00:31:33;56.00;;;19.90;;
56770;SDS011;42641;59.794;17.616;2022-08-19T00:33:59;43.55;;;19.42;;
56770;SDS011;42641;59.794;17.616;2022-08-19T00:36:26;33.63;;;18.90;;
56770;SDS011;42641;59.794;17.616;2022-08-19T00:38:54;31.80;;;19.58;;
56770;SDS011;42641;59.794;17.616;2022-08-19T00:41:21;21.70;;;16.10;;
56770;SDS011;42641;59.794;17.616;2022-08-19T00:46:40;33.30;;;19.45;;
56770;SDS011;42641;59.794;17.616;2022-08-19T00:49:32;27.88;;;16.52;;
56770;SDS011;42641;59.794;17.616;2022-08-19T00:52:18;32.92;;;17.42;;
56770;SDS011;42641;59.794;17.616;2022-08-19T00:54:46;30.92;;;17.92;;
56770;SDS011;42641;59.794;17.616;2022-08-19T00:57:14;47.55;;;20.60;;
56770;SDS011;42641;59.794;17.616;2022-08-19T00:59:43;37.15;;;19.77;;
56770;SDS011;42641;59.794;17.616;2022-08-19T01:02:13;38.30;;;20.05;;
56770;SDS011;42641;59.794;17.616;2022-08-19T01:04:41;33.22;;;21.15;;
56770;SDS011;42641;59.794;17.616;2022-08-19T01:07:07;32.45;;;19.65;;
56770;SDS011;42641;59.794;17.616;2022-08-19T01:09:33;32.65;;;19.95;;
56770;SDS011;42641;59.794;17.616;2022-08-19T01:12:00;33.53;;;19.70;;
56770;SDS011;42641;59.794;17.616;2022-08-19T01:14:27;31.80;;;20.15;;
56770;SDS011;42641;59.794;17.616;2022-08-19T01:16:54;33.60;;;20.63;;
56770;SDS011;42641;59.794;17.616;2022-08-19T01:19:29;35.35;;;20.33;;
56770;SDS011;42641;59.794;17.616;2022-08-19T01:22:03;38.13;;;20.20;;
56770;SDS011;42641;59.794;17.616;2022-08-19T01:24:48;24.48;;;18.00;;
56770;SDS011;42641;59.794;17.616;2022-08-19T01:27:16;27.45;;;17.52;;
56770;SDS011;42641;59.794;17.616;2022-08-19T01:29:43;27.83;;;19.55;;
56770;SDS011;42641;59.794;17.616;2022-08-19T01:32:11;36.85;;;21.10;;
56770;SDS011;42641;59.794;17.616;2022-08-19T01:34:40;36.83;;;20.25;;
56770;SDS011;42641;59.794;17.616;2022-08-19T01:37:09;32.95;;;21.48;;
56770;SDS011;42641;59.794;17.616;2022-08-19T01:39:37;27.33;;;18.48;;
56770;SDS011;42641;59.794;17.616;2022-08-19T01:42:05;27.20;;;18.45;;
56770;SDS011;42641;59.794;17.616;2022-08-19T01:44:35;27.75;;;19.70;;
56770;SDS011;42641;59.794;17.616;2022-08-19T01:47:03;23.58;;;18.83;;
56770;SDS011;42641;59.794;17.616;2022-08-19T01:49:30;26.40;;;18.10;;
56770;SDS011;42641;59.794;17.616;2022-08-19T01:51:58;25.08;;;19.15;;
56770;SDS011;42641;59.794;17.616;2022-08-19T01:54:26;35.35;;;21.38;;
56770;SDS011;42641;59.794;17.616;2022-08-19T01:56:53;32.25;;;19.20;;
56770;SDS011;42641;59.794;17.616;2022-08-19T01:59:23;27.70;;;20.27;;
56770;SDS011;42641;59.794;17.616;2022-08-19T02:01:50;32.95;;;21.63;;
56770;SDS011;42641;59.794;17.616;2022-08-19T02:04:16;26.95;;;18.70;;
56770;SDS011;42641;59.794;17.616;2022-08-19T02:06:43;21.23;;;17.50;;
56770;SDS011;42641;59.794;17.616;2022-08-19T02:09:09;26.80;;;20.02;;
56770;SDS011;42641;59.794;17.616;2022-08-19T02:11:36;22.85;;;17.45;;
56770;SDS011;42641;59.794;17.616;2022-08-19T02:14:04;20.52;;;16.63;;
56770;SDS011;42641;59.794;17.616;2022-08-19T02:16:32;21.95;;;16.88;;
56770;SDS011;42641;59.794;17.616;2022-08-19T02:18:58;19.55;;;14.57;;
56770;SDS011;42641;59.794;17.616;2022-08-19T02:21:28;26.42;;;18.58;;
56770;SDS011;42641;59.794;17.616;2022-08-19T02:23:55;25.27;;;20.02;;
56770;SDS011;42641;59.794;17.616;2022-08-19T02:26:22;30.23;;;21.02;;
56770;SDS011;42641;59.794;17.616;2022-08-19T02:28:49;24.23;;;19.08;;
56770;SDS011;42641;59.794;17.616;2022-08-19T02:31:17;27.60;;;19.60;;
56770;SDS011;42641;59.794;17.616;2022-08-19T02:33:45;29.73;;;21.17;;
56770;SDS011;42641;59.794;17.616;2022-08-19T02:36:13;33.72;;;21.67;;
56770;SDS011;42641;59.794;17.616;2022-08-19T02:38:42;34.55;;;23.25;;
56770;SDS011;42641;59.794;17.616;2022-08-19T02:41:28;31.77;;;22.13;;
56770;SDS011;42641;59.794;17.616;2022-08-19T02:43:58;26.98;;;19.95;;
56770;SDS011;42641;59.794;17.616;2022-08-19T02:46:27;29.48;;;21.85;;
56770;SDS011;42641;59.794;17.616;2022-08-19T02:48:56;26.40;;;20.35;;
56770;SDS011;42641;59.794;17.616;2022-08-19T02:51:27;30.20;;;20.88;;
56770;SDS011;42641;59.794;17.616;2022-08-19T02:53:55;25.08;;;20.05;;
56770;SDS011;42641;59.794;17.616;2022-08-19T02:56:22;33.33;;;22.85;;
56770;SDS011;42641;59.794;17.616;2022-08-19T02:58:50;29.25;;;21.75;;
56770;SDS011;42641;59.794;17.616;2022-08-19T03:01:24;27.20;;;19.75;;
56770;SDS011;42641;59.794;17.616;2022-08-19T03:03:54;36.30;;;22.85;;
56770;SDS011;42641;59.794;17.616;2022-08-19T03:06:22;30.45;;;21.25;;
56770;SDS011;42641;59.794;17.616;2022-08-19T03:08:49;28.45;;;21.42;;
56770;SDS011;42641;59.794;17.616;2022-08-19T03:11:30;36.20;;;24.40;;
56770;SDS011;42641;59.794;17.616;2022-08-19T03:13:57;27.00;;;19.67;;
56770;SDS011;42641;59.794;17.616;2022-08-19T03:16:26;28.65;;;20.48;;
56770;SDS011;42641;59.794;17.616;2022-08-19T03:18:55;32.85;;;22.70;;
56770;SDS011;42641;59.794;17.616;2022-08-19T03:21:30;32.65;;;22.63;;
56770;SDS011;42641;59.794;17.616;2022-08-19T03:23:59;36.83;;;23.42;;
56770;SDS011;42641;59.794;17.616;2022-08-19T03:26:27;24.77;;;19.25;;
56770;SDS011;42641;59.794;17.616;2022-08-19T03:28:54;24.88;;;19.23;;
56770;SDS011;42641;59.794;17.616;2022-08-19T03:31:22;32.83;;;21.77;;
56770;SDS011;42641;59.794;17.616;2022-08-19T03:33:50;30.50;;;22.80;;
56770;SDS011;42641;59.794;17.616;2022-08-19T03:36:21;32.95;;;21.73;;
56770;SDS011;42641;59.794;17.616;2022-08-19T03:38:50;36.08;;;22.75;;
56770;SDS011;42641;59.794;17.616;2022-08-19T03:41:21;35.63;;;23.40;;
56770;SDS011;42641;59.794;17.616;2022-08-19T03:43:49;33.13;;;23.40;;
56770;SDS011;42641;59.794;17.616;2022-08-19T03:46:19;35.95;;;23.27;;
56770;SDS011;42641;59.794;17.616;2022-08-19T03:48:51;33.25;;;22.17;;
56770;SDS011;42641;59.794;17.616;2022-08-19T03:51:23;29.17;;;22.00;;
56770;SDS011;42641;59.794;17.616;2022-08-19T03:53:52;33.13;;;23.33;;
56770;SDS011;42641;59.794;17.616;2022-08-19T03:56:19;32.47;;;22.40;;
56770;SDS011;42641;59.794;17.616;2022-08-19T03:58:46;27.83;;;20.42;;
56770;SDS011;42641;59.794;17.616;2022-08-19T04:01:14;27.50;;;20.88;;
56770;SDS011;42641;59.794;17.616;2022-08-19T04:03:41;29.98;;;23.23;;
56770;SDS011;42641;59.794;17.616;2022-08-19T04:08:49;32.60;;;22.23;;
56770;SDS011;42641;59.794;17.616;2022-08-19T04:11:17;36.20;;;22.67;;
56770;SDS011;42641;59.794;17.616;2022-08-19T04:13:48;34.88;;;23.50;;
56770;SDS011;42641;59.794;17.616;2022-08-19T04:16:20;31.50;;;22.65;;
56770;SDS011;42641;59.794;17.616;2022-08-19T04:18:48;31.30;;;22.60;;
56770;SDS011;42641;59.794;17.616;2022-08-19T04:21:19;33.67;;;22.65;;
56770;SDS011;42641;59.794;17.616;2022-08-19T04:23:47;31.27;;;22.85;;
56770;SDS011;42641;59.794;17.616;2022-08-19T04:26:15;26.40;;;21.38;;
56770;SDS011;42641;59.794;17.616;2022-08-19T04:28:45;31.45;;;23.23;;
56770;SDS011;42641;59.794;17.616;2022-08-19T04:31:12;41.10;;;23.90;;
56770;SDS011;42641;59.794;17.616;2022-08-19T04:33:40;27.45;;;22.88;;
56770;SDS011;42641;59.794;17.616;2022-08-19T04:36:07;26.85;;;21.80;;
56770;SDS011;42641;59.794;17.616;2022-08-19T04:38:40;27.27;;;20.88;;
56770;SDS011;42641;59.794;17.616;2022-08-19T04:41:07;39.25;;;25.38;;
56770;SDS011;42641;59.794;17.616;2022-08-19T04:43:52;38.20;;;24.35;;
56770;SDS011;42641;59.794;17.616;2022-08-19T04:46:18;37.05;;;24.40;;
56770;SDS011;42641;59.794;17.616;2022-08-19T04:48:45;40.20;;;25.92;;
56770;SDS011;42641;59.794;17.616;2022-08-19T04:51:12;30.77;;;22.75;;
56770;SDS011;42641;59.794;17.616;2022-08-19T04:53:40;36.00;;;24.98;;
56770;SDS011;42641;59.794;17.616;2022-08-19T04:56:08;33.83;;;24.23;;
56770;SDS011;42641;59.794;17.616;2022-08-19T04:58:37;28.17;;;21.90;;
56770;SDS011;42641;59.794;17.616;2022-08-19T05:01:05;38.13;;;25.02;;
56770;SDS011;42641;59.794;17.616;2022-08-19T05:03:32;35.35;;;23.88;;
56770;SDS011;42641;59.794;17.616;2022-08-19T05:06:05;34.17;;;24.73;;
56770;SDS011;42641;59.794;17.616;2022-08-19T05:08:42;38.95;;;26.42;;
56770;SDS011;42641;59.794;17.616;2022-08-19T05:11:14;35.25;;;24.15;;
56770;SDS011;42641;59.794;17.616;2022-08-19T05:13:42;31.00;;;22.48;;
56770;SDS011;42641;59.794;17.616;2022-08-19T05:16:10;35.35;;;24.55;;
56770;SDS011;42641;59.794;17.616;2022-08-19T05:18:39;30.35;;;22.85;;
56770;SDS011;42641;59.794;17.616;2022-08-19T05:21:25;30.60;;;22.90;;
56770;SDS011;42641;59.794;17.616;2022-08-19T05:24:10;33.10;;;25.15;;
56770;SDS011;42641;59.794;17.616;2022-08-19T05:26:43;40.70;;;25.60;;
56770;SDS011;42641;59.794;17.616;2022-08-19T05:29:16;35.90;;;24.58;;
56770;SDS011;42641;59.794;17.616;2022-08-19T05:31:44;37.05;;;25.88;;
56770;SDS011;42641;59.794;17.616;2022-08-19T05:34:12;36.72;;;25.58;;
56770;SDS011;42641;59.794;17.616;2022-08-19T05:36:40;33.40;;;23.90;;
56770;SDS011;42641;59.794;17.616;2022-08-19T05:39:10;30.45;;;22.95;;
56770;SDS011;42641;59.794;17.616;2022-08-19T05:41:42;36.83;;;25.83;;
56770;SDS011;42641;59.794;17.616;2022-08-19T05:44:10;33.30;;;24.48;;
56770;SDS011;42641;59.794;17.616;2022-08-19T05:46:37;38.72;;;26.92;;
56770;SDS011;42641;59.794;17.616;2022-08-19T05:49:05;39.45;;;26.13;;
56770;SDS011;42641;59.794;17.616;2022-08-19T05:51:33;36.83;;;25.23;;
56770;SDS011;42641;59.794;17.616;2022-08-19T05:54:13;35.30;;;25.77;;
56770;SDS011;42641;59.794;17.616;2022-08-19T05:56:40;40.70;;;25.58;;
56770;SDS011;42641;59.794;17.616;2022-08-19T05:59:09;34.08;;;24.58;;
56770;SDS011;42641;59.794;17.616;2022-08-19T06:01:37;40.03;;;25.65;;
56770;SDS011;42641;59.794;17.616;2022-08-19T06:04:05;43.90;;;27.35;;
56770;SDS011;42641;59.794;17.616;2022-08-19T06:06:32;29.55;;;24.05;;
56770;SDS011;42641;59.794;17.616;2022-08-19T06:09:00;34.35;;;25.38;;
56770;SDS011;42641;59.794;17.616;2022-08-19T06:11:33;39.58;;;26.52;;
56770;SDS011;42641;59.794;17.616;2022-08-19T06:14:03;35.00;;;25.60;;
56770;SDS011;42641;59.794;17.616;2022-08-19T06:16:34;26.83;;;22.40;;
56770;SDS011;42641;59.794;17.616;2022-08-19T06:19:03;26.48;;;21.00;;
56770;SDS011;42641;59.794;17.616;2022-08-19T06:21:33;27.30;;;21.88;;
56770;SDS011;42641;59.794;17.616;2022-08-19T06:24:03;29.98;;;23.92;;
56770;SDS011;42641;59.794;17.616;2022-08-19T06:26:32;31.83;;;25.13;;
56770;SDS011;42641;59.794;17.616;2022-08-19T06:29:00;28.23;;;21.77;;
56770;SDS011;42641;59.794;17.616;2022-08-19T06:31:28;32.08;;;22.70;;
56770;SDS011;42641;59.794;17.616;2022-08-19T06:33:56;29.88;;;24.10;;
56770;SDS011;42641;59.794;17.616;2022-08-19T06:36:27;33.15;;;24.25;;
56770;SDS011;42641;59.794;17.616;2022-08-19T06:39:04;31.58;;;24.55;;
56770;SDS011;42641;59.794;17.616;2022-08-19T06:41:37;32.67;;;24.05;;
56770;SDS011;42641;59.794;17.616;2022-08-19T06:44:10;36.47;;;26.80;;
56770;SDS011;42641;59.794;17.616;2022-08-19T06:46:37;28.30;;;22.55;;
56770;SDS011;42641;59.794;17.616;2022-08-19T06:49:04;29.52;;;23.02;;
56770;SDS011;42641;59.794;17.616;2022-08-19T06:51:32;32.22;;;24.98;;
56770;SDS011;42641;59.794;17.616;2022-08-19T06:53:58;33.38;;;24.73;;
56770;SDS011;42641;59.794;17.616;2022-08-19T06:56:26;29.40;;;23.67;;
56770;SDS011;42641;59.794;17.616;2022-08-19T06:59:03;32.35;;;23.70;;
56770;SDS011;42641;59.794;17.616;2022-08-19T07:01:35;27.92;;;23.30;;
56770;SDS011;42641;59.794;17.616;2022-08-19T07:04:04;27.88;;;23.48;;
56770;SDS011;42641;59.794;17.616;2022-08-19T07:06:32;27.50;;;23.10;;
56770;SDS011;42641;59.794;17.616;2022-08-19T07:08:58;27.20;;;22.50;;
56770;SDS011;42641;59.794;17.616;2022-08-19T07:11:25;26.85;;;22.80;;
56770;SDS011;42641;59.794;17.616;2022-08-19T07:13:51;32.03;;;23.67;;
56770;SDS011;42641;59.794;17.616;2022-08-19T07:16:19;31.33;;;24.40;;
56770;SDS011;42641;59.794;17.616;2022-08-19T07:18:46;32.25;;;23.25;;
56770;SDS011;42641;59.794;17.616;2022-08-19T07:21:15;27.45;;;21.92;;
56770;SDS011;42641;59.794;17.616;2022-08-19T07:23:47;33.88;;;24.30;;
56770;SDS011;42641;59.794;17.616;2022-08-19T07:26:16;30.80;;;23.08;;
56770;SDS011;42641;59.794;17.616;2022-08-19T07:28:48;28.10;;;21.80;;
56770;SDS011;42641;59.794;17.616;2022-08-19T07:31:16;36.38;;;25.05;;
56770;SDS011;42641;59.794;17.616;2022-08-19T07:33:45;26.10;;;22.92;;
56770;SDS011;42641;59.794;17.616;2022-08-19T07:36:16;34.30;;;24.45;;
56770;SDS011;42641;59.794;17.616;2022-08-19T07:38:44;25.38;;;20.65;;
56770;SDS011;42641;59.794;17.616;2022-08-19T07:41:15;29.25;;;24.00;;
56770;SDS011;42641;59.794;17.616;2022-08-19T07:43:45;34.17;;;24.40;;
56770;SDS011;42641;59.794;17.616;2022-08-19T07:46:13;29.75;;;23.98;;
56770;SDS011;42641;59.794;17.616;2022-08-19T07:48:41;32.63;;;24.75;;
56770;SDS011;42641;59.794;17.616;2022-08-19T07:51:13;28.08;;;22.95;;
56770;SDS011;42641;59.794;17.616;2022-08-19T07:53:42;26.92;;;22.50;;
56770;SDS011;42641;59.794;17.616;2022-08-19T07:56:11;30.83;;;23.33;;
56770;SDS011;42641;59.794;17.616;2022-08-19T07:58:39;28.63;;;23.13;;
56770;SDS011;42641;59.794;17.616;2022-08-19T08:01:10;29.23;;;22.70;;
56770;SDS011;42641;59.794;17.616;2022-08-19T08:03:39;25.45;;;20.98;;
56770;SDS011;42641;59.794;17.616;2022-08-19T08:06:24;27.42;;;22.10;;
56770;SDS011;42641;59.794;17.616;2022-08-19T08:09:10;22.13;;;19.70;;
56770;SDS011;42641;59.794;17.616;2022-08-19T08:11:43;25.38;;;21.17;;
56770;SDS011;42641;59.794;17.616;2022-08-19T08:14:29;22.17;;;19.80;;
56770;SDS011;42641;59.794;17.616;2022-08-19T08:16:58;24.23;;;19.88;;
56770;SDS011;42641;59.794;17.616;2022-08-19T08:19:26;25.60;;;21.30;;
56770;SDS011;42641;59.794;17.616;2022-08-19T08:21:54;24.88;;;22.27;;
56770;SDS011;42641;59.794;17.616;2022-08-19T08:24:22;24.35;;;20.30;;
56770;SDS011;42641;59.794;17.616;2022-08-19T08:26:49;23.33;;;19.63;;
56770;SDS011;42641;59.794;17.616;2022-08-19T08:29:15;21.52;;;19.33;;
56770;SDS011;42641;59.794;17.616;2022-08-19T08:31:42;21.77;;;18.35;;
56770;SDS011;42641;59.794;17.616;2022-08-19T08:34:10;20.92;;;18.70;;
56770;SDS011;42641;59.794;17.616;2022-08-19T08:36:39;23.30;;;18.55;;
56770;SDS011;42641;59.794;17.616;2022-08-19T08:39:08;21.02;;;18.40;;
56770;SDS011;42641;59.794;17.616;2022-08-19T08:44:34;19.65;;;17.55;;
56770;SDS011;42641;59.794;17.616;2022-08-19T08:47:04;21.88;;;18.85;;
56770;SDS011;42641;59.794;17.616;2022-08-19T08:49:52;19.88;;;17.98;;
56770;SDS011;42641;59.794;17.616;2022-08-19T08:52:34;21.23;;;19.02;;
56770;SDS011;42641;59.794;17.616;2022-08-19T08:55:12;21.08;;;18.23;;
56770;SDS011;42641;59.794;17.616;2022-08-19T08:57:53;21.67;;;19.17;;
56770;SDS011;42641;59.794;17.616;2022-08-19T09:00:33;21.23;;;18.98;;
56770;SDS011;42641;59.794;17.616;2022-08-19T09:03:07;22.02;;;18.00;;
56770;SDS011;42641;59.794;17.616;2022-08-19T09:06:03;22.05;;;17.42;;
56770;SDS011;42641;59.794;17.616;2022-08-19T09:14:53;19.10;;;17.10;;
56770;SDS011;42641;59.794;17.616;2022-08-19T09:17:25;19.33;;;16.92;;
56770;SDS011;42641;59.794;17.616;2022-08-19T09:20:04;19.23;;;17.42;;
56770;SDS011;42641;59.794;17.616;2022-08-19T09:22:40;20.70;;;18.40;;
56770;SDS011;42641;59.794;17.616;2022-08-19T09:25:11;21.42;;;19.02;;
56770;SDS011;42641;59.794;17.616;2022-08-19T09:27:40;22.63;;;17.35;;
56770;SDS011;42641;59.794;17.616;2022-08-19T09:30:11;26.33;;;18.55;;
56770;SDS011;42641;59.794;17.616;2022-08-19T09:32:40;17.90;;;16.00;;
56770;SDS011;42641;59.794;17.616;2022-08-19T09:35:08;19.02;;;16.30;;
56770;SDS011;42641;59.794;17.616;2022-08-19T09:37:35;18.85;;;17.02;;
56770;SDS011;42641;59.794;17.616;2022-08-19T09:40:02;19.02;;;16.80;;
56770;SDS011;42641;59.794;17.616;2022-08-19T09:42:29;17.95;;;16.05;;
56770;SDS011;42641;59.794;17.616;2022-08-19T09:44:55;18.25;;;15.40;;
56770;SDS011;42641;59.794;17.616;2022-08-19T09:47:22;17.83;;;15.70;;
56770;SDS011;42641;59.794;17.616;2022-08-19T09:49:48;17.90;;;16.10;;
56770;SDS011;42641;59.794;17.616;2022-08-19T09:52:16;17.75;;;16.05;;
56770;SDS011;42641;59.794;17.616;2022-08-19T09:54:43;16.33;;;14.57;;
56770;SDS011;42641;59.794;17.616;2022-08-19T09:57:09;16.50;;;14.68;;
56770;SDS011;42641;59.794;17.616;2022-08-19T09:59:36;17.98;;;15.75;;
56770;SDS011;42641;59.794;17.616;2022-08-19T10:02:04;16.10;;;14.45;;
56770;SDS011;42641;59.794;17.616;2022-08-19T10:04:30;17.52;;;14.63;;
56770;SDS011;42641;59.794;17.616;2022-08-19T10:07:15;18.38;;;14.23;;
56770;SDS011;42641;59.794;17.616;2022-08-19T10:09:41;17.13;;;13.38;;
56770;SDS011;42641;59.794;17.616;2022-08-19T10:12:08;13.80;;;12.52;;
56770;SDS011;42641;59.794;17.616;2022-08-19T10:14:34;14.95;;;13.18;;
56770;SDS011;42641;59.794;17.616;2022-08-19T10:17:02;13.15;;;11.95;;
56770;SDS011;42641;59.794;17.616;2022-08-19T10:19:28;16.08;;;13.57;;
56770;SDS011;42641;59.794;17.616;2022-08-19T10:22:05;14.50;;;13.05;;
56770;SDS011;42641;59.794;17.616;2022-08-19T10:24:35;14.45;;;12.98;;
56770;SDS011;42641;59.794;17.616;2022-08-19T10:27:02;16.42;;;13.60;;
56770;SDS011;42641;59.794;17.616;2022-08-19T10:29:31;14.40;;;12.75;;
56770;SDS011;42641;59.794;17.616;2022-08-19T10:32:03;13.32;;;11.93;;
56770;SDS011;42641;59.794;17.616;2022-08-19T10:34:33;12.68;;;11.48;;
56770;SDS011;42641;59.794;17.616;2022-08-19T10:37:02;14.55;;;12.52;;
56770;SDS011;42641;59.794;17.616;2022-08-19T10:40:02;16.65;;;12.38;;
56770;SDS011;42641;59.794;17.616;2022-08-19T10:42:49;13.43;;;11.75;;
56770;SDS011;42641;59.794;17.616;2022-08-19T10:45:15;13.57;;;10.88;;
56770;SDS011;42641;59.794;17.616;2022-08-19T10:47:42;12.52;;;10.73;;
56770;SDS011;42641;59.794;17.616;2022-08-19T10:50:09;12.23;;;10.95;;
56770;SDS011;42641;59.794;17.616;2022-08-19T10:52:54;12.55;;;11.25;;
56770;SDS011;42641;59.794;17.616;2022-08-19T10:55:21;13.38;;;11.98;;
56770;SDS011;42641;59.794;17.616;2022-08-19T10:58:15;14.32;;;11.90;;
56770;SDS011;42641;59.794;17.616;2022-08-19T11:00:50;11.93;;;10.73;;
56770;SDS011;42641;59.794;17.616;2022-08-19T11:03:46;11.70;;;10.55;;
56770;SDS011;42641;59.794;17.616;2022-08-19T11:06:17;14.35;;;11.23;;
56770;SDS011;42641;59.794;17.616;2022-08-19T11:08:46;12.10;;;10.45;;
56770;SDS011;42641;59.794;17.616;2022-08-19T11:11:12;13.85;;;10.60;;
56770;SDS011;42641;59.794;17.616;2022-08-19T11:13:39;10.88;;;9.85;;
56770;SDS011;42641;59.794;17.616;2022-08-19T11:16:07;10.77;;;9.68;;
56770;SDS011;42641;59.794;17.616;2022-08-19T11:18:41;10.60;;;9.48;;
56770;SDS011;42641;59.794;17.616;2022-08-19T11:21:23;10.27;;;9.25;;
56770;SDS011;42641;59.794;17.616;2022-08-19T11:24:00;10.05;;;9.05;;
56770;SDS011;42641;59.794;17.616;2022-08-19T11:26:29;9.50;;;8.60;;
56770;SDS011;42641;59.794;17.616;2022-08-19T11:28:59;9.73;;;8.80;;
56770;SDS011;42641;59.794;17.616;2022-08-19T11:31:27;9.75;;;8.80;;
56770;SDS011;42641;59.794;17.616;2022-08-19T11:33:59;9.70;;;8.73;;
56770;SDS011;42641;59.794;17.616;2022-08-19T11:36:28;9.70;;;7.78;;
56770;SDS011;42641;59.794;17.616;2022-08-19T11:39:04;9.27;;;8.00;;
56770;SDS011;42641;59.794;17.616;2022-08-19T11:41:50;10.05;;;8.30;;
56770;SDS011;42641;59.794;17.616;2022-08-19T11:44:19;11.25;;;8.10;;
56770;SDS011;42641;59.794;17.616;2022-08-19T11:46:46;10.63;;;7.50;;
56770;SDS011;42641;59.794;17.616;2022-08-19T11:49:13;10.20;;;7.55;;
56770;SDS011;42641;59.794;17.616;2022-08-19T11:51:42;8.80;;;7.18;;
56770;SDS011;42641;59.794;17.616;2022-08-19T11:54:08;8.30;;;6.57;;
56770;SDS011;42641;59.794;17.616;2022-08-19T11:56:36;7.65;;;6.57;;
56770;SDS011;42641;59.794;17.616;2022-08-19T11:59:03;7.38;;;6.50;;
56770;SDS011;42641;59.794;17.616;2022-08-19T12:01:30;8.45;;;6.30;;
56770;SDS011;42641;59.794;17.616;2022-08-19T12:03:58;10.90;;;6.47;;
56770;SDS011;42641;59.794;17.616;2022-08-19T12:06:28;9.40;;;6.43;;
56770;SDS011;42641;59.794;17.616;2022-08-19T12:08:58;8.35;;;6.45;;
56770;SDS011;42641;59.794;17.616;2022-08-19T12:11:26;9.10;;;6.20;;
56770;SDS011;42641;59.794;17.616;2022-08-19T12:13:53;8.77;;;6.07;;
56770;SDS011;42641;59.794;17.616;2022-08-19T12:16:22;7.82;;;6.13;;
56770;SDS011;42641;59.794;17.616;2022-08-19T12:18:50;7.53;;;6.25;;
56770;SDS011;42641;59.794;17.616;2022-08-19T12:21:18;12.68;;;6.50;;
56770;SDS011;42641;59.794;17.616;2022-08-19T12:23:47;8.00;;;6.55;;
56770;SDS011;42641;59.794;17.616;2022-08-19T12:26:16;6.28;;;5.45;;
56770;SDS011;42641;59.794;17.616;2022-08-19T12:28:43;6.30;;;5.55;;
56770;SDS011;42641;59.794;17.616;2022-08-19T12:31:10;11.50;;;5.78;;
56770;SDS011;42641;59.794;17.616;2022-08-19T12:33:40;11.70;;;6.22;;
56770;SDS011;42641;59.794;17.616;2022-08-19T12:36:16;7.15;;;5.22;;
56770;SDS011;42641;59.794;17.616;2022-08-19T12:38:43;7.28;;;6.07;;
56770;SDS011;42641;59.794;17.616;2022-08-19T12:41:11;6.85;;;6.20;;
56770;SDS011;42641;59.794;17.616;2022-08-19T12:43:41;6.70;;;5.32;;
56770;SDS011;42641;59.794;17.616;2022-08-19T12:46:08;8.82;;;5.82;;
56770;SDS011;42641;59.794;17.616;2022-08-19T12:48:35;6.25;;;5.53;;
56770;SDS011;42641;59.794;17.616;2022-08-19T12:51:06;8.40;;;5.75;;
56770;SDS011;42641;59.794;17.616;2022-08-19T12:53:33;10.10;;;6.05;;
56770;SDS011;42641;59.794;17.616;2022-08-19T12:56:01;7.90;;;5.43;;
56770;SDS011;42641;59.794;17.616;2022-08-19T12:58:28;7.25;;;5.28;;
56770;SDS011;42641;59.794;17.616;2022-08-19T13:00:55;6.97;;;5.63;;
56770;SDS011;42641;59.794;17.616;2022-08-19T13:03:21;7.88;;;5.28;;
56770;SDS011;42641;59.794;17.616;2022-08-19T13:05:53;7.75;;;5.20;;
56770;SDS011;42641;59.794;17.616;2022-08-19T13:08:19;5.72;;;5.22;;
56770;SDS011;42641;59.794;17.616;2022-08-19T13:10:45;7.65;;;5.50;;
56770;SDS011;42641;59.794;17.616;2022-08-19T13:13:12;8.93;;;5.50;;
56770;SDS011;42641;59.794;17.616;2022-08-19T13:15:39;7.65;;;5.35;;
56770;SDS011;42641;59.794;17.616;2022-08-19T13:18:08;6.68;;;5.40;;
56770;SDS011;42641;59.794;17.616;2022-08-19T13:20:36;8.80;;;5.75;;
56770;SDS011;42641;59.794;17.616;2022-08-19T13:23:03;7.38;;;5.10;;
56770;SDS011;42641;59.794;17.616;2022-08-19T13:25:30;7.63;;;5.25;;
56770;SDS011;42641;59.794;17.616;2022-08-19T13:27:56;7.68;;;4.90;;
56770;SDS011;42641;59.794;17.616;2022-08-19T13:30:23;5.88;;;5.28;;
56770;SDS011;42641;59.794;17.616;2022-08-19T13:33:09;10.13;;;5.40;;
56770;SDS011;42641;59.794;17.616;2022-08-19T13:35:50;5.82;;;5.25;;
56770;SDS011;42641;59.794;17.616;2022-08-19T13:38:22;6.22;;;5.25;;
56770;SDS011;42641;59.794;17.616;2022-08-19T13:40:50;10.35;;;5.25;;
56770;SDS011;42641;59.794;17.616;2022-08-19T13:43:19;7.25;;;5.10;;
56770;SDS011;42641;59.794;17.616;2022-08-19T13:45:50;5.40;;;4.88;;
56770;SDS011;42641;59.794;17.616;2022-08-19T13:48:19;5.85;;;4.80;;
56770;SDS011;42641;59.794;17.616;2022-08-19T13:50:46;7.53;;;4.85;;
56770;SDS011;42641;59.794;17.616;2022-08-19T13:53:15;9.32;;;5.03;;
56770;SDS011;42641;59.794;17.616;2022-08-19T13:55:42;6.88;;;4.78;;
56770;SDS011;42641;59.794;17.616;2022-08-19T13:58:09;8.35;;;5.05;;
56770;SDS011;42641;59.794;17.616;2022-08-19T14:00:38;7.38;;;4.82;;
56770;SDS011;42641;59.794;17.616;2022-08-19T14:03:06;8.93;;;5.03;;
56770;SDS011;42641;59.794;17.616;2022-08-19T14:05:33;6.22;;;4.55;;
56770;SDS011;42641;59.794;17.616;2022-08-19T14:08:05;5.00;;;4.50;;
56770;SDS011;42641;59.794;17.616;2022-08-19T14:10:32;6.97;;;4.88;;
56770;SDS011;42641;59.794;17.616;2022-08-19T14:13:00;6.22;;;4.45;;
56770;SDS011;42641;59.794;17.616;2022-08-19T14:15:28;5.50;;;4.57;;
56770;SDS011;42641;59.794;17.616;2022-08-19T14:17:55;4.55;;;4.10;;
56770;SDS011;42641;59.794;17.616;2022-08-19T14:20:22;8.65;;;4.55;;
56770;SDS011;42641;59.794;17.616;2022-08-19T14:22:49;5.20;;;4.57;;
56770;SDS011;42641;59.794;17.616;2022-08-19T14:25:18;5.93;;;4.30;;
56770;SDS011;42641;59.794;17.616;2022-08-19T14:27:47;7.07;;;5.00;;
56770;SDS011;42641;59.794;17.616;2022-08-19T14:30:16;7.63;;;4.72;;
56770;SDS011;42641;59.794;17.616;2022-08-19T14:32:45;4.88;;;4.13;;
56770;SDS011;42641;59.794;17.616;2022-08-19T14:35:13;5.68;;;4.72;;
56770;SDS011;42641;59.794;17.616;2022-08-19T14:37:41;5.95;;;4.75;;
56770;SDS011;42641;59.794;17.616;2022-08-19T14:40:10;4.88;;;4.38;;
56770;SDS011;42641;59.794;17.616;2022-08-19T14:42:37;8.00;;;4.50;;
56770;SDS011;42641;59.794;17.616;2022-08-19T14:45:04;5.97;;;4.40;;